createdAt,value
2022-12-08T00:00:57.295Z,1.20
2022-12-08T00:01:57.441Z,1.10
2022-12-08T00:02:57.510Z,1.00
2022-12-08T00:03:57.236Z,1.60
2022-12-08T00:04:57.251Z,1.30
2022-12-08T00:05:57.887Z,0.90
2022-12-08T00:06:57.246Z,1.10
2022-12-08T00:07:57.245Z,1.10
2022-12-08T00:08:57.238Z,1.20
2022-12-08T00:09:57.188Z,1.10
2022-12-08T00:10:57.197Z,1.00
2022-12-08T00:11:57.158Z,1.00
2022-12-08T00:12:57.175Z,1.50
2022-12-08T00:13:57.345Z,1.00
2022-12-08T00:14:57.176Z,1.20
2022-12-08T00:15:57.116Z,0.90
2022-12-08T00:16:57.234Z,1.20
2022-12-08T00:17:57.131Z,1.10
2022-12-08T00:18:57.114Z,1.00
2022-12-08T00:19:57.097Z,1.00
2022-12-08T00:20:57.117Z,1.20
2022-12-08T00:21:57.057Z,0.90
2022-12-08T00:22:57.081Z,1.10
2022-12-08T00:23:57.074Z,0.80
2022-12-08T00:24:57.067Z,1.10
2022-12-08T00:25:57.018Z,1.10
2022-12-08T00:26:57.036Z,0.90
2022-12-08T00:27:56.999Z,1.00
2022-12-08T00:28:56.996Z,1.00
2022-12-08T00:29:57.007Z,1.10
2022-12-08T00:30:56.995Z,0.90
2022-12-08T00:31:57.023Z,0.80
2022-12-08T00:32:56.946Z,1.20
2022-12-08T00:33:56.925Z,1.00
2022-12-08T00:34:56.938Z,1.40
2022-12-08T00:35:56.947Z,1.00
2022-12-08T00:36:56.935Z,1.10
2022-12-08T00:38:00.791Z,1.00
2022-12-08T00:38:56.897Z,1.10
2022-12-08T00:39:56.926Z,0.80
2022-12-08T00:40:56.866Z,0.80
2022-12-08T00:41:56.878Z,1.20
2022-12-08T00:42:56.837Z,1.20
2022-12-08T00:43:56.836Z,0.80
2022-12-08T00:44:56.826Z,0.90
2022-12-08T00:45:56.903Z,1.10
2022-12-08T00:46:56.820Z,0.90
2022-12-08T00:47:56.883Z,1.00
2022-12-08T00:48:56.802Z,1.10
2022-12-08T00:49:56.852Z,0.80
2022-12-08T00:50:56.758Z,0.90
2022-12-08T00:51:57.747Z,1.20
2022-12-08T00:52:56.739Z,1.10
2022-12-08T00:53:56.755Z,1.00
2022-12-08T00:54:56.716Z,1.20
2022-12-08T00:55:56.720Z,1.10
2022-12-08T00:56:56.686Z,0.90
2022-12-08T00:57:56.716Z,1.10
2022-12-08T00:58:56.676Z,1.20
2022-12-08T00:59:56.676Z,0.80
2022-12-08T01:00:56.723Z,0.90
2022-12-08T01:01:56.711Z,1.10
2022-12-08T01:02:56.674Z,1.10
2022-12-08T01:03:56.676Z,1.10
2022-12-08T01:04:56.659Z,0.60
2022-12-08T01:05:56.622Z,1.10
2022-12-08T01:06:56.627Z,1.00
2022-12-08T01:07:56.635Z,0.70
2022-12-08T01:08:56.570Z,0.90
2022-12-08T01:09:56.589Z,0.80
2022-12-08T01:10:56.556Z,0.80
2022-12-08T01:11:56.565Z,1.10
2022-12-08T01:12:56.525Z,0.80
2022-12-08T01:13:56.534Z,1.00
2022-12-08T01:15:00.738Z,1.00
2022-12-08T01:15:57.528Z,1.30
2022-12-08T01:16:56.621Z,1.00
2022-12-08T01:17:56.527Z,0.90
2022-12-08T01:18:56.478Z,1.20
2022-12-08T01:19:56.506Z,0.90
2022-12-08T01:20:56.458Z,1.10
2022-12-08T01:21:56.476Z,1.30
2022-12-08T01:22:56.443Z,1.10
2022-12-08T01:23:56.468Z,1.10
2022-12-08T01:24:56.427Z,0.90
2022-12-08T01:25:56.434Z,0.60
2022-12-08T01:26:56.388Z,1.10
2022-12-08T01:27:56.448Z,1.10
2022-12-08T01:28:56.376Z,0.90
2022-12-08T01:29:56.386Z,0.90
2022-12-08T01:30:56.385Z,0.80
2022-12-08T01:31:56.356Z,1.00
2022-12-08T01:32:56.339Z,0.90
2022-12-08T01:33:56.348Z,1.20
2022-12-08T01:34:56.324Z,0.80
2022-12-08T01:35:56.360Z,1.00
2022-12-08T01:36:56.288Z,1.00
2022-12-08T01:37:56.299Z,0.90
2022-12-08T01:38:56.260Z,1.10
2022-12-08T01:39:56.292Z,1.10
2022-12-08T01:40:56.266Z,1.20
2022-12-08T01:41:56.250Z,1.10
2022-12-08T01:42:56.227Z,1.10
2022-12-08T01:43:56.267Z,0.80
2022-12-08T01:44:56.208Z,0.90
2022-12-08T01:45:56.267Z,1.10
2022-12-08T01:46:56.226Z,1.10
2022-12-08T01:47:56.242Z,1.10
2022-12-08T01:48:56.157Z,1.20
2022-12-08T01:49:56.187Z,1.30
2022-12-08T01:50:56.149Z,1.10
2022-12-08T01:51:56.155Z,1.00
2022-12-08T01:52:56.125Z,0.80
2022-12-08T01:53:56.137Z,1.00
2022-12-08T01:54:56.110Z,0.80
2022-12-08T01:55:56.117Z,1.10
2022-12-08T01:56:56.109Z,0.80
2022-12-08T01:57:56.090Z,1.10
2022-12-08T01:58:56.069Z,0.80
2022-12-08T01:59:56.114Z,1.10
2022-12-08T02:00:56.105Z,1.00
2022-12-08T02:01:56.111Z,1.10
2022-12-08T02:02:56.076Z,0.90
2022-12-08T02:03:56.042Z,1.20
2022-12-08T02:04:56.007Z,1.00
2022-12-08T02:05:56.007Z,1.00
2022-12-08T02:06:55.988Z,0.90
2022-12-08T02:07:56.044Z,0.90
2022-12-08T02:08:55.949Z,1.00
2022-12-08T02:09:56.118Z,0.90
2022-12-08T02:10:55.948Z,0.90
2022-12-08T02:11:55.947Z,0.90
2022-12-08T02:12:55.929Z,1.30
2022-12-08T02:13:55.919Z,1.10
2022-12-08T02:14:58.386Z,0.80
2022-12-08T02:15:55.946Z,0.90
2022-12-08T02:16:55.881Z,1.30
2022-12-08T02:17:55.890Z,0.90
2022-12-08T02:19:22.387Z,1.00
2022-12-08T02:19:56.891Z,1.40
2022-12-08T02:20:55.877Z,0.90
2022-12-08T02:21:55.838Z,1.10
2022-12-08T02:22:55.817Z,0.90
2022-12-08T02:23:55.875Z,0.80
2022-12-08T02:24:55.787Z,1.00
2022-12-08T02:25:55.809Z,0.80
2022-12-08T02:26:55.770Z,0.90
2022-12-08T02:27:56.738Z,1.00
2022-12-08T02:28:55.760Z,1.10
2022-12-08T02:29:55.780Z,0.90
2022-12-08T02:30:55.813Z,0.70
2022-12-08T02:31:55.740Z,1.00
2022-12-08T02:32:55.744Z,1.00
2022-12-08T02:33:55.720Z,0.70
2022-12-08T02:34:55.690Z,1.20
2022-12-08T02:35:55.710Z,0.80
2022-12-08T02:36:55.677Z,0.90
2022-12-08T02:37:55.666Z,1.10
2022-12-08T02:38:55.648Z,1.00
2022-12-08T02:39:55.657Z,1.10
2022-12-08T02:40:55.638Z,0.80
2022-12-08T02:41:55.639Z,1.40
2022-12-08T02:42:55.610Z,0.90
2022-12-08T02:43:55.608Z,1.00
2022-12-08T02:44:55.590Z,1.00
2022-12-08T02:45:55.635Z,1.00
2022-12-08T02:46:55.600Z,0.90
2022-12-08T02:47:55.581Z,0.70
2022-12-08T02:48:55.539Z,0.80
2022-12-08T02:49:55.547Z,1.10
2022-12-08T02:50:55.519Z,1.10
2022-12-08T02:51:55.539Z,1.00
2022-12-08T02:52:55.520Z,0.90
2022-12-08T02:53:55.500Z,0.90
2022-12-08T02:54:55.510Z,0.80
2022-12-08T02:55:55.498Z,1.00
2022-12-08T02:56:55.462Z,0.90
2022-12-08T02:57:55.496Z,1.20
2022-12-08T02:58:55.451Z,1.00
2022-12-08T02:59:55.460Z,1.00
2022-12-08T03:00:55.423Z,1.10
2022-12-08T03:01:55.473Z,1.20
2022-12-08T03:02:55.459Z,1.10
2022-12-08T03:03:55.449Z,1.10
2022-12-08T03:04:55.427Z,1.10
2022-12-08T03:05:55.582Z,0.90
2022-12-08T03:06:55.358Z,1.10
2022-12-08T03:07:55.401Z,1.00
2022-12-08T03:08:55.360Z,1.10
2022-12-08T03:09:55.353Z,0.80
2022-12-08T03:10:55.353Z,1.10
2022-12-08T03:11:55.331Z,1.10
2022-12-08T03:12:55.302Z,0.90
2022-12-08T03:13:55.309Z,1.00
2022-12-08T03:14:55.286Z,1.10
2022-12-08T03:15:55.344Z,1.10
2022-12-08T03:16:55.288Z,1.10
2022-12-08T03:17:55.258Z,1.30
2022-12-08T03:18:55.230Z,1.10
2022-12-08T03:19:55.239Z,0.90
2022-12-08T03:20:55.251Z,1.20
2022-12-08T03:21:55.247Z,0.90
2022-12-08T03:22:55.200Z,1.30
2022-12-08T03:23:55.197Z,0.90
2022-12-08T03:24:55.184Z,1.10
2022-12-08T03:25:55.191Z,1.20
2022-12-08T03:26:55.163Z,1.10
2022-12-08T03:27:55.162Z,0.90
2022-12-08T03:28:55.144Z,1.00
2022-12-08T03:29:55.154Z,0.80
2022-12-08T03:30:55.172Z,0.90
2022-12-08T03:31:55.134Z,1.00
2022-12-08T03:32:55.089Z,0.90
2022-12-08T03:33:55.090Z,0.90
2022-12-08T03:34:55.061Z,1.00
2022-12-08T03:35:55.100Z,1.10
2022-12-08T03:36:55.040Z,1.10
2022-12-08T03:37:55.052Z,0.90
2022-12-08T03:38:55.030Z,1.00
2022-12-08T03:39:55.064Z,0.90
2022-12-08T03:40:55.013Z,1.00
2022-12-08T03:41:55.042Z,1.30
2022-12-08T03:42:55.019Z,1.00
2022-12-08T03:43:55.026Z,0.80
2022-12-08T03:44:55.007Z,1.00
2022-12-08T03:45:54.975Z,0.70
2022-12-08T03:46:54.991Z,0.80
2022-12-08T03:47:55.631Z,0.90
2022-12-08T03:48:54.920Z,1.10
2022-12-08T03:49:54.934Z,0.90
2022-12-08T03:50:54.901Z,1.10
2022-12-08T03:51:54.912Z,1.20
2022-12-08T03:52:54.904Z,1.00
2022-12-08T03:53:54.893Z,0.90
2022-12-08T03:54:54.863Z,1.20
2022-12-08T03:55:54.889Z,0.80
2022-12-08T03:56:54.842Z,1.00
2022-12-08T03:57:55.130Z,0.80
2022-12-08T03:58:54.846Z,0.90
2022-12-08T03:59:54.830Z,1.40
2022-12-08T04:00:54.801Z,1.00
2022-12-08T04:01:54.916Z,0.80
2022-12-08T04:02:54.805Z,1.00
2022-12-08T04:03:54.780Z,1.00
2022-12-08T04:04:54.760Z,1.00
2022-12-08T04:05:54.800Z,0.80
2022-12-08T04:06:54.740Z,0.90
2022-12-08T04:07:54.809Z,0.90
2022-12-08T04:08:54.736Z,1.00
2022-12-08T04:09:54.721Z,1.00
2022-12-08T04:10:54.701Z,0.70
2022-12-08T04:11:54.710Z,0.80
2022-12-08T04:12:54.679Z,1.00
2022-12-08T04:13:54.713Z,0.90
2022-12-08T04:14:54.659Z,1.20
2022-12-08T04:15:54.704Z,1.20
2022-12-08T04:16:54.641Z,0.90
2022-12-08T04:17:54.644Z,1.10
2022-12-08T04:18:54.611Z,1.40
2022-12-08T04:19:54.649Z,1.10
2022-12-08T04:20:54.609Z,0.80
2022-12-08T04:22:51.436Z,0.70
2022-12-08T04:23:56.111Z,0.80
2022-12-08T04:24:52.409Z,1.00
2022-12-08T04:25:51.417Z,1.00
2022-12-08T04:26:51.398Z,1.10
2022-12-08T04:27:51.398Z,1.00
2022-12-08T04:28:51.386Z,1.10
2022-12-08T04:29:51.656Z,1.00
2022-12-08T04:30:51.357Z,1.10
2022-12-08T04:31:51.431Z,0.90
2022-12-08T04:32:51.330Z,1.20
2022-12-08T04:33:51.331Z,1.00
2022-12-08T04:34:51.324Z,0.90
2022-12-08T04:35:51.356Z,0.70
2022-12-08T04:36:51.292Z,0.90
2022-12-08T04:37:51.310Z,0.90
2022-12-08T04:38:51.267Z,1.10
2022-12-08T04:39:51.266Z,1.10
2022-12-08T04:40:51.262Z,1.00
2022-12-08T04:41:51.305Z,1.00
2022-12-08T04:42:51.279Z,1.20
2022-12-08T04:43:51.259Z,1.10
2022-12-08T04:44:51.217Z,0.70
2022-12-08T04:45:51.225Z,0.80
2022-12-08T04:46:51.261Z,1.10
2022-12-08T04:47:51.237Z,0.90
2022-12-08T04:48:51.727Z,0.80
2022-12-08T04:49:51.218Z,1.20
2022-12-08T04:50:51.146Z,1.00
2022-12-08T04:51:51.154Z,0.90
2022-12-08T04:52:51.129Z,0.80
2022-12-08T04:53:51.139Z,1.20
2022-12-08T04:54:51.119Z,1.40
2022-12-08T04:55:51.110Z,1.30
2022-12-08T04:56:51.087Z,0.90
2022-12-08T04:57:51.090Z,1.20
2022-12-08T04:58:51.070Z,1.00
2022-12-08T04:59:51.197Z,1.00
2022-12-08T05:00:51.160Z,0.80
2022-12-08T05:01:51.154Z,1.20
2022-12-08T05:02:51.073Z,0.90
2022-12-08T05:03:51.058Z,1.00
2022-12-08T05:04:51.964Z,1.10
2022-12-08T05:05:51.018Z,1.00
2022-12-08T05:06:50.997Z,1.00
2022-12-08T05:07:51.059Z,1.10
2022-12-08T05:08:52.647Z,1.20
2022-12-08T05:09:50.978Z,0.90
2022-12-08T05:10:50.953Z,1.10
2022-12-08T05:11:51.027Z,1.30
2022-12-08T05:12:51.668Z,1.00
2022-12-08T05:13:50.937Z,1.20
2022-12-08T05:14:50.918Z,1.10
2022-12-08T05:15:50.976Z,1.10
2022-12-08T05:16:50.949Z,1.10
2022-12-08T05:17:50.898Z,0.90
2022-12-08T05:18:50.890Z,0.90
2022-12-08T05:19:50.880Z,1.00
2022-12-08T05:20:50.849Z,0.90
2022-12-08T05:21:50.856Z,1.00
2022-12-08T05:22:50.827Z,0.80
2022-12-08T05:23:50.842Z,1.20
2022-12-08T05:24:50.808Z,0.80
2022-12-08T05:25:50.808Z,0.90
2022-12-08T05:26:50.810Z,1.00
2022-12-08T05:27:50.838Z,1.10
2022-12-08T05:28:51.187Z,1.00
2022-12-08T05:29:50.776Z,0.70
2022-12-08T05:30:50.750Z,0.90
2022-12-08T05:31:50.865Z,1.00
2022-12-08T05:32:50.718Z,1.40
2022-12-08T05:33:50.750Z,1.10
2022-12-08T05:34:50.729Z,0.90
2022-12-08T05:35:50.717Z,1.00
2022-12-08T05:36:50.688Z,0.70
2022-12-08T05:37:50.707Z,1.10
2022-12-08T05:38:50.658Z,1.00
2022-12-08T05:39:50.685Z,1.10
2022-12-08T05:40:50.648Z,1.00
2022-12-08T05:41:50.688Z,0.80
2022-12-08T05:42:50.645Z,0.70
2022-12-08T05:43:50.629Z,1.10
2022-12-08T05:44:50.618Z,0.90
2022-12-08T05:45:50.715Z,1.30
2022-12-08T05:46:50.588Z,0.90
2022-12-08T05:47:50.588Z,0.90
2022-12-08T05:48:50.568Z,0.90
2022-12-08T05:49:50.591Z,0.90
2022-12-08T05:50:50.559Z,0.70
2022-12-08T05:51:50.549Z,0.90
2022-12-08T05:52:50.528Z,1.10
2022-12-08T05:53:50.540Z,0.90
2022-12-08T05:54:51.184Z,1.30
2022-12-08T05:55:50.520Z,1.40
2022-12-08T05:56:50.517Z,0.90
2022-12-08T05:57:50.480Z,1.00
2022-12-08T05:58:50.469Z,1.00
2022-12-08T05:59:50.471Z,1.00
2022-12-08T06:00:50.486Z,0.90
2022-12-08T06:01:50.571Z,0.80
2022-12-08T06:02:50.514Z,0.70
2022-12-08T06:03:50.418Z,0.90
2022-12-08T06:04:50.416Z,0.80
2022-12-08T06:05:50.419Z,1.20
2022-12-08T06:06:50.708Z,0.90
2022-12-08T06:07:51.408Z,1.00
2022-12-08T06:08:50.367Z,0.90
2022-12-08T06:09:50.388Z,1.00
2022-12-08T06:10:50.533Z,0.80
2022-12-08T06:11:50.438Z,1.00
2022-12-08T06:12:50.362Z,1.00
2022-12-08T06:13:50.339Z,1.00
2022-12-08T06:14:50.309Z,1.00
2022-12-08T06:15:50.689Z,1.20
2022-12-08T06:16:50.361Z,1.00
2022-12-08T06:17:50.295Z,0.90
2022-12-08T06:18:51.233Z,1.30
2022-12-08T06:19:50.297Z,1.20
2022-12-08T06:20:50.259Z,1.00
2022-12-08T06:21:50.259Z,1.10
2022-12-08T06:22:50.219Z,1.00
2022-12-08T06:23:50.239Z,1.20
2022-12-08T06:24:50.209Z,0.90
2022-12-08T06:25:50.221Z,0.90
2022-12-08T06:26:51.940Z,1.00
2022-12-08T06:27:50.218Z,0.90
2022-12-08T06:28:50.159Z,1.10
2022-12-08T06:29:50.189Z,0.80
2022-12-08T06:30:51.099Z,1.00
2022-12-08T06:31:50.267Z,0.90
2022-12-08T06:32:50.119Z,0.90
2022-12-08T06:33:50.471Z,1.40
2022-12-08T06:34:50.799Z,1.00
2022-12-08T06:35:50.179Z,0.80
2022-12-08T06:36:50.090Z,1.20
2022-12-08T06:37:50.081Z,0.80
2022-12-08T06:38:50.079Z,1.00
2022-12-08T06:39:50.059Z,0.90
2022-12-08T06:40:50.069Z,1.00
2022-12-08T06:41:50.189Z,1.00
2022-12-08T06:42:50.046Z,0.90
2022-12-08T06:43:49.989Z,0.80
2022-12-08T06:44:49.969Z,0.90
2022-12-08T06:45:49.977Z,1.30
2022-12-08T06:46:49.971Z,1.80
2022-12-08T06:47:50.031Z,1.20
2022-12-08T06:48:49.960Z,1.80
2022-12-08T06:49:50.590Z,1.40
2022-12-08T06:50:49.920Z,1.20
2022-12-08T06:51:49.890Z,2.10
2022-12-08T06:53:01.012Z,1.50
2022-12-08T06:53:50.888Z,1.30
2022-12-08T06:54:49.867Z,1.20
2022-12-08T06:56:05.116Z,1.60
2022-12-08T06:56:50.851Z,1.50
2022-12-08T06:57:53.977Z,1.40
2022-12-08T06:58:52.862Z,1.30
2022-12-08T06:59:49.818Z,1.30
2022-12-08T07:00:49.863Z,1.40
2022-12-08T07:01:49.864Z,1.20
2022-12-08T07:02:49.857Z,1.30
2022-12-08T07:03:49.778Z,1.00
2022-12-08T07:04:50.211Z,1.20
2022-12-08T07:05:49.750Z,0.80
2022-12-08T07:06:49.760Z,1.10
2022-12-08T07:07:49.800Z,1.30
2022-12-08T07:08:49.731Z,1.50
2022-12-08T07:09:49.740Z,1.00
2022-12-08T07:10:49.730Z,1.20
2022-12-08T07:11:49.753Z,0.90
2022-12-08T07:12:49.724Z,1.00
2022-12-08T07:13:49.671Z,0.90
2022-12-08T07:14:49.708Z,0.90
2022-12-08T07:15:49.718Z,1.30
2022-12-08T07:16:49.704Z,0.80
2022-12-08T07:17:52.517Z,1.10
2022-12-08T07:18:50.612Z,1.00
2022-12-08T07:19:49.611Z,1.00
2022-12-08T07:20:49.621Z,1.20
2022-12-08T07:21:49.629Z,1.00
2022-12-08T07:22:49.586Z,1.00
2022-12-08T07:23:55.779Z,1.00
2022-12-08T07:24:50.580Z,1.00
2022-12-08T07:25:49.573Z,1.00
2022-12-08T07:26:49.530Z,0.90
2022-12-08T07:27:49.532Z,0.90
2022-12-08T07:28:49.511Z,1.50
2022-12-08T07:29:49.520Z,1.00
2022-12-08T07:30:49.767Z,1.30
2022-12-08T07:31:49.492Z,1.30
2022-12-08T07:32:49.472Z,1.40
2022-12-08T07:33:49.531Z,1.00
2022-12-08T07:34:49.503Z,1.10
2022-12-08T07:35:49.614Z,0.90
2022-12-08T07:36:49.482Z,1.00
2022-12-08T07:37:49.460Z,0.90
2022-12-08T07:38:49.413Z,1.60
2022-12-08T07:39:49.411Z,1.20
2022-12-08T07:40:49.404Z,1.00
2022-12-08T07:41:49.513Z,0.90
2022-12-08T07:42:49.662Z,1.00
2022-12-08T07:43:49.378Z,1.30
2022-12-08T07:44:49.352Z,1.30
2022-12-08T07:45:49.452Z,1.30
2022-12-08T07:46:49.332Z,0.90
2022-12-08T07:47:49.361Z,0.90
2022-12-08T07:48:49.316Z,1.20
2022-12-08T07:49:49.311Z,1.10
2022-12-08T07:50:49.312Z,1.10
2022-12-08T07:51:49.283Z,0.90
2022-12-08T07:52:49.272Z,1.10
2022-12-08T07:53:53.748Z,1.00
2022-12-08T07:54:50.274Z,1.10
2022-12-08T07:55:49.253Z,1.00
2022-12-08T07:56:49.283Z,0.80
2022-12-08T07:57:49.282Z,1.20
2022-12-08T07:58:49.252Z,1.10
2022-12-08T07:59:49.224Z,1.10
2022-12-08T08:00:49.238Z,0.90
2022-12-08T08:02:05.092Z,1.00
2022-12-08T08:02:50.243Z,0.90
2022-12-08T08:03:49.171Z,1.00
2022-12-08T08:04:49.218Z,0.60
2022-12-08T08:05:49.167Z,1.20
2022-12-08T08:06:49.192Z,1.00
2022-12-08T08:07:49.191Z,1.00
2022-12-08T08:08:49.131Z,1.00
2022-12-08T08:09:49.122Z,1.00
2022-12-08T08:10:49.082Z,0.90
2022-12-08T08:12:14.424Z,1.10
2022-12-08T08:12:50.071Z,1.00
2022-12-08T08:13:49.093Z,1.10
2022-12-08T08:14:49.256Z,0.90
2022-12-08T08:15:49.125Z,1.20
2022-12-08T08:16:49.099Z,1.30
2022-12-08T08:17:49.070Z,1.10
2022-12-08T08:18:49.018Z,1.30
2022-12-08T08:19:49.011Z,0.90
2022-12-08T08:20:49.032Z,1.00
2022-12-08T08:21:48.999Z,1.00
2022-12-08T08:22:48.962Z,1.40
2022-12-08T08:23:48.970Z,0.90
2022-12-08T08:24:48.941Z,1.30
2022-12-08T08:25:48.974Z,0.90
2022-12-08T08:26:48.970Z,1.10
2022-12-08T08:27:48.940Z,0.90
2022-12-08T08:28:48.914Z,1.30
2022-12-08T08:29:50.648Z,0.80
2022-12-08T08:30:48.953Z,1.00
2022-12-08T08:31:48.892Z,0.90
2022-12-08T08:32:48.865Z,1.00
2022-12-08T08:33:48.871Z,0.90
2022-12-08T08:34:48.876Z,0.70
2022-12-08T08:35:48.850Z,1.00
2022-12-08T08:36:48.842Z,1.00
2022-12-08T08:37:49.642Z,0.90
2022-12-08T08:38:48.826Z,0.80
2022-12-08T08:39:49.241Z,1.20
2022-12-08T08:40:48.802Z,1.20
2022-12-08T08:41:48.891Z,1.10
2022-12-08T08:42:48.775Z,1.00
2022-12-08T08:43:48.773Z,1.10
2022-12-08T08:44:48.744Z,1.30
2022-12-08T08:45:48.754Z,1.10
2022-12-08T08:46:48.835Z,0.80
2022-12-08T08:47:48.713Z,1.10
2022-12-08T08:48:48.739Z,1.40
2022-12-08T08:49:48.694Z,1.60
2022-12-08T08:50:49.275Z,0.90
2022-12-08T08:51:48.679Z,1.00
2022-12-08T08:52:48.683Z,0.80
2022-12-08T08:53:48.653Z,1.10
2022-12-08T08:54:48.667Z,0.90
2022-12-08T08:55:48.651Z,1.50
2022-12-08T08:56:48.667Z,1.40
2022-12-08T08:57:48.623Z,1.60
2022-12-08T08:58:48.626Z,0.80
2022-12-08T08:59:48.615Z,0.90
2022-12-08T09:00:48.636Z,1.10
2022-12-08T09:01:48.625Z,1.10
2022-12-08T09:02:48.584Z,1.10
2022-12-08T09:03:48.555Z,1.20
2022-12-08T09:04:48.745Z,1.30
2022-12-08T09:05:48.626Z,0.90
2022-12-08T09:06:48.563Z,1.10
2022-12-08T09:07:49.502Z,1.50
2022-12-08T09:08:48.524Z,1.50
2022-12-08T09:09:48.504Z,1.60
2022-12-08T09:10:48.483Z,1.30
2022-12-08T09:11:48.552Z,1.60
2022-12-08T09:12:48.724Z,1.10
2022-12-08T09:13:48.484Z,1.30
2022-12-08T09:14:48.454Z,1.00
2022-12-08T09:15:48.529Z,1.20
2022-12-08T09:16:48.494Z,1.10
2022-12-08T09:17:50.182Z,1.30
2022-12-08T09:18:48.408Z,1.30
2022-12-08T09:19:48.412Z,1.10
2022-12-08T09:20:48.383Z,1.50
2022-12-08T09:21:48.386Z,1.60
2022-12-08T09:23:45.136Z,1.20
2022-12-08T09:24:45.117Z,1.30
2022-12-08T09:25:45.064Z,1.20
2022-12-08T09:26:45.082Z,1.30
2022-12-08T09:27:45.053Z,1.10
2022-12-08T09:28:45.062Z,1.20
2022-12-08T09:29:45.041Z,1.50
2022-12-08T09:30:45.023Z,1.40
2022-12-08T09:31:45.063Z,1.20
2022-12-08T09:32:45.069Z,1.60
2022-12-08T09:33:44.982Z,1.40
2022-12-08T09:34:50.460Z,1.10
2022-12-08T09:35:45.984Z,1.80
2022-12-08T09:36:44.976Z,1.20
2022-12-08T09:37:44.989Z,1.30
2022-12-08T09:38:44.945Z,1.50
2022-12-08T09:39:44.944Z,1.10
2022-12-08T09:40:44.934Z,1.30
2022-12-08T09:41:48.057Z,1.40
2022-12-08T09:42:44.911Z,1.10
2022-12-08T09:43:44.884Z,1.10
2022-12-08T09:44:44.892Z,1.10
2022-12-08T09:45:44.863Z,1.40
2022-12-08T09:46:44.934Z,0.90
2022-12-08T09:47:44.916Z,1.10
2022-12-08T09:48:44.843Z,1.20
2022-12-08T09:49:44.843Z,1.60
2022-12-08T09:50:44.833Z,1.10
2022-12-08T09:51:44.806Z,0.90
2022-12-08T09:52:44.798Z,1.10
2022-12-08T09:53:44.843Z,1.10
2022-12-08T09:54:44.828Z,0.90
2022-12-08T09:55:44.824Z,1.20
2022-12-08T09:56:44.772Z,1.20
2022-12-08T09:57:44.771Z,0.90
2022-12-08T09:58:44.734Z,1.10
2022-12-08T09:59:44.757Z,1.10
2022-12-08T10:00:44.723Z,1.60
2022-12-08T10:01:44.934Z,1.00
2022-12-08T10:02:44.707Z,1.70
2022-12-08T10:03:44.731Z,1.40
2022-12-08T10:04:44.720Z,1.60
2022-12-08T10:05:45.325Z,0.90
2022-12-08T10:06:44.654Z,1.10
2022-12-08T10:07:44.803Z,1.00
2022-12-08T10:08:44.634Z,1.30
2022-12-08T10:09:44.647Z,1.70
2022-12-08T10:10:44.612Z,0.90
2022-12-08T10:11:44.645Z,1.10
2022-12-08T10:12:44.629Z,1.20
2022-12-08T10:13:44.615Z,1.20
2022-12-08T10:14:44.566Z,1.20
2022-12-08T10:15:44.641Z,1.00
2022-12-08T10:16:44.662Z,1.20
2022-12-08T10:17:44.575Z,1.50
2022-12-08T10:18:44.536Z,1.30
2022-12-08T10:19:44.544Z,1.30
2022-12-08T10:20:44.517Z,1.40
2022-12-08T10:21:45.482Z,1.00
2022-12-08T10:22:45.180Z,1.00
2022-12-08T10:23:44.495Z,1.10
2022-12-08T10:24:44.508Z,0.90
2022-12-08T10:25:44.485Z,1.30
2022-12-08T10:26:44.453Z,1.50
2022-12-08T10:27:44.482Z,1.20
2022-12-08T10:28:45.679Z,1.10
2022-12-08T10:29:44.442Z,1.10
2022-12-08T10:30:44.414Z,1.20
2022-12-08T10:31:44.572Z,1.10
2022-12-08T10:32:44.405Z,1.10
2022-12-08T10:33:44.414Z,1.00
2022-12-08T10:34:44.375Z,1.20
2022-12-08T10:35:44.374Z,1.20
2022-12-08T10:36:44.354Z,1.20
2022-12-08T10:37:44.365Z,1.20
2022-12-08T10:38:44.387Z,1.20
2022-12-08T10:39:44.356Z,1.00
2022-12-08T10:40:45.854Z,1.10
2022-12-08T10:41:44.326Z,1.10
2022-12-08T10:42:44.305Z,0.80
2022-12-08T10:43:44.434Z,1.40
2022-12-08T10:44:44.264Z,1.00
2022-12-08T10:45:44.293Z,1.30
2022-12-08T10:46:44.335Z,1.00
2022-12-08T10:47:45.495Z,1.20
2022-12-08T10:48:44.256Z,1.20
2022-12-08T10:49:44.254Z,1.50
2022-12-08T10:50:44.216Z,1.50
2022-12-08T10:51:44.235Z,1.60
2022-12-08T10:52:44.207Z,1.10
2022-12-08T10:53:44.217Z,1.30
2022-12-08T10:54:44.184Z,1.10
2022-12-08T10:55:44.191Z,1.30
2022-12-08T10:56:44.154Z,1.20
2022-12-08T10:57:44.155Z,1.20
2022-12-08T10:58:44.137Z,1.10
2022-12-08T10:59:44.176Z,1.30
2022-12-08T11:00:44.242Z,1.40
2022-12-08T11:01:44.261Z,1.30
2022-12-08T11:02:44.147Z,1.30
2022-12-08T11:03:44.110Z,1.30
2022-12-08T11:04:44.085Z,1.20
2022-12-08T11:05:44.102Z,1.10
2022-12-08T11:06:44.055Z,2.00
2022-12-08T11:07:44.157Z,1.50
2022-12-08T11:08:44.026Z,1.50
2022-12-08T11:09:44.050Z,1.30
2022-12-08T11:10:44.026Z,1.30
2022-12-08T11:11:44.044Z,1.30
2022-12-08T11:12:43.994Z,1.30
2022-12-08T11:13:43.995Z,1.60
2022-12-08T11:14:43.976Z,1.40
2022-12-08T11:15:44.009Z,1.40
2022-12-08T11:16:44.088Z,1.50
2022-12-08T11:17:43.967Z,1.40
2022-12-08T11:18:43.986Z,1.10
2022-12-08T11:19:43.938Z,1.50
2022-12-08T11:20:43.937Z,1.30
2022-12-08T11:21:43.946Z,1.20
2022-12-08T11:22:43.895Z,1.30
2022-12-08T11:23:43.917Z,1.30
2022-12-08T11:24:43.865Z,1.90
2022-12-08T11:25:43.874Z,1.50
2022-12-08T11:26:43.872Z,1.20
2022-12-08T11:27:43.909Z,3.10
2022-12-08T11:28:43.829Z,1.30
2022-12-08T11:29:43.856Z,1.90
2022-12-08T11:30:43.820Z,2.30
2022-12-08T11:31:43.887Z,2.00
2022-12-08T11:32:43.828Z,1.70
2022-12-08T11:33:43.807Z,1.40
2022-12-08T11:34:43.776Z,1.90
2022-12-08T11:35:43.782Z,2.00
2022-12-08T11:36:43.757Z,1.90
2022-12-08T11:37:43.779Z,1.90
2022-12-08T11:38:43.738Z,1.60
2022-12-08T11:39:43.758Z,1.70
2022-12-08T11:40:43.705Z,1.80
2022-12-08T11:41:43.716Z,1.40
2022-12-08T11:42:43.725Z,1.70
2022-12-08T11:43:43.705Z,2.00
2022-12-08T11:44:43.686Z,1.80
2022-12-08T11:45:43.685Z,2.30
2022-12-08T11:46:43.660Z,1.60
2022-12-08T11:47:43.665Z,1.70
2022-12-08T11:48:43.626Z,2.00
2022-12-08T11:49:43.647Z,1.30
2022-12-08T11:50:43.618Z,1.70
2022-12-08T11:51:43.630Z,1.30
2022-12-08T11:52:44.547Z,1.80
2022-12-08T11:53:43.605Z,1.50
2022-12-08T11:54:43.576Z,1.60
2022-12-08T11:55:48.141Z,2.00
2022-12-08T11:56:44.596Z,1.80
2022-12-08T11:57:43.602Z,2.00
2022-12-08T11:58:43.547Z,2.00
2022-12-08T11:59:43.550Z,1.70
2022-12-08T12:00:43.554Z,1.30
2022-12-08T12:01:43.584Z,1.70
2022-12-08T12:02:43.578Z,2.00
2022-12-08T12:03:43.542Z,1.40
2022-12-08T12:04:43.456Z,1.50
2022-12-08T12:06:54.615Z,1.60
2022-12-08T12:07:45.447Z,1.30
2022-12-08T12:08:43.443Z,1.40
2022-12-08T12:09:43.426Z,1.90
2022-12-08T12:10:43.426Z,2.00
2022-12-08T12:11:43.427Z,1.80
2022-12-08T12:12:43.418Z,1.40
2022-12-08T12:13:43.388Z,1.90
2022-12-08T12:14:43.392Z,2.10
2022-12-08T12:15:43.359Z,1.90
2022-12-08T12:16:43.430Z,1.70
2022-12-08T12:17:43.386Z,1.60
2022-12-08T12:18:43.357Z,1.40
2022-12-08T12:19:43.328Z,1.70
2022-12-08T12:20:43.317Z,1.70
2022-12-08T12:21:43.294Z,1.70
2022-12-08T12:22:43.325Z,1.70
2022-12-08T12:23:43.334Z,1.90
2022-12-08T12:24:43.277Z,1.90
2022-12-08T12:25:43.276Z,2.20
2022-12-08T12:26:43.258Z,2.30
2022-12-08T12:27:43.238Z,1.90
2022-12-08T12:28:43.258Z,2.10
2022-12-08T12:29:43.239Z,1.80
2022-12-08T12:30:43.292Z,2.30
2022-12-08T12:31:43.198Z,1.50
2022-12-08T12:32:43.218Z,1.60
2022-12-08T12:33:43.190Z,2.10
2022-12-08T12:34:43.219Z,1.70
2022-12-08T12:35:43.152Z,1.70
2022-12-08T12:36:43.186Z,1.90
2022-12-08T12:37:43.320Z,2.00
2022-12-08T12:38:43.136Z,1.50
2022-12-08T12:39:43.106Z,1.70
2022-12-08T12:40:43.117Z,1.40
2022-12-08T12:41:43.108Z,1.60
2022-12-08T12:42:43.140Z,2.20
2022-12-08T12:43:43.098Z,1.90
2022-12-08T12:44:43.112Z,1.50
2022-12-08T12:45:43.073Z,1.80
2022-12-08T12:46:43.709Z,1.70
2022-12-08T12:47:43.050Z,1.70
2022-12-08T12:48:43.070Z,2.10
2022-12-08T12:49:43.041Z,1.80
2022-12-08T12:50:43.047Z,1.70
2022-12-08T12:51:43.021Z,1.60
2022-12-08T12:52:42.997Z,2.00
2022-12-08T12:53:42.988Z,2.00
2022-12-08T12:54:42.996Z,1.50
2022-12-08T12:55:42.949Z,1.70
2022-12-08T12:56:42.958Z,1.60
2022-12-08T12:57:42.928Z,1.80
2022-12-08T12:58:42.986Z,1.90
2022-12-08T12:59:42.949Z,1.60
2022-12-08T13:00:42.937Z,1.50
2022-12-08T13:01:42.921Z,1.50
2022-12-08T13:02:42.947Z,2.00
2022-12-08T13:03:42.876Z,1.80
2022-12-08T13:04:42.945Z,1.80
2022-12-08T13:05:42.848Z,1.70
2022-12-08T13:06:42.857Z,1.80
2022-12-08T13:07:42.887Z,1.80
2022-12-08T13:08:42.880Z,1.60
2022-12-08T13:09:42.799Z,2.00
2022-12-08T13:10:42.840Z,1.60
2022-12-08T13:11:47.716Z,1.70
2022-12-08T13:12:43.809Z,1.80
2022-12-08T13:13:42.771Z,1.50
2022-12-08T13:14:42.798Z,1.30
2022-12-08T13:15:42.748Z,1.70
2022-12-08T13:16:42.789Z,1.70
2022-12-08T13:17:42.717Z,1.80
2022-12-08T13:18:42.743Z,1.60
2022-12-08T13:19:45.383Z,1.60
2022-12-08T13:20:43.756Z,1.80
2022-12-08T13:21:42.686Z,1.30